sensor_id;sensor_type;location;lat;lon;timestamp;temperature;humidity
52899;DHT22;38763;53.096;6.062;2022-11-18T00:01:46;7.20;99.90
52899;DHT22;38763;53.096;6.062;2022-11-18T00:04:12;7.20;99.90
52899;DHT22;38763;53.096;6.062;2022-11-18T00:06:37;7.20;99.90
52899;DHT22;38763;53.096;6.062;2022-11-18T00:09:03;7.10;99.90
52899;DHT22;38763;53.096;6.062;2022-11-18T00:11:29;7.10;99.90
52899;DHT22;38763;53.096;6.062;2022-11-18T00:14:31;7.20;99.90
52899;DHT22;38763;53.096;6.062;2022-11-18T00:17:06;6.90;99.90
52899;DHT22;38763;53.096;6.062;2022-11-18T00:19:33;6.80;99.90
52899;DHT22;38763;53.096;6.062;2022-11-18T00:21:59;7.10;99.90
52899;DHT22;38763;53.096;6.062;2022-11-18T00:24:26;6.90;99.90
52899;DHT22;38763;53.096;6.062;2022-11-18T00:26:52;7.10;99.90
52899;DHT22;38763;53.096;6.062;2022-11-18T00:29:18;7.10;99.90
52899;DHT22;38763;53.096;6.062;2022-11-18T00:31:44;7.00;99.90
52899;DHT22;38763;53.096;6.062;2022-11-18T00:34:11;6.70;99.90
52899;DHT22;38763;53.096;6.062;2022-11-18T00:36:39;7.00;99.90
52899;DHT22;38763;53.096;6.062;2022-11-18T00:39:04;7.00;99.90
52899;DHT22;38763;53.096;6.062;2022-11-18T00:41:30;6.80;99.90
52899;DHT22;38763;53.096;6.062;2022-11-18T00:44:15;7.00;99.90
52899;DHT22;38763;53.096;6.062;2022-11-18T00:46:41;6.90;99.90
52899;DHT22;38763;53.096;6.062;2022-11-18T00:49:07;6.80;99.90
52899;DHT22;38763;53.096;6.062;2022-11-18T00:51:33;6.80;99.90
52899;DHT22;38763;53.096;6.062;2022-11-18T00:53:58;6.80;99.90
52899;DHT22;38763;53.096;6.062;2022-11-18T00:56:24;6.80;99.90
52899;DHT22;38763;53.096;6.062;2022-11-18T00:58:49;7.00;99.90
52899;DHT22;38763;53.096;6.062;2022-11-18T01:01:15;7.00;99.90
52899;DHT22;38763;53.096;6.062;2022-11-18T01:03:40;7.00;99.90
52899;DHT22;38763;53.096;6.062;2022-11-18T01:06:06;7.00;99.90
52899;DHT22;38763;53.096;6.062;2022-11-18T01:08:32;6.80;99.90
52899;DHT22;38763;53.096;6.062;2022-11-18T01:10:57;7.10;99.90
52899;DHT22;38763;53.096;6.062;2022-11-18T01:13:43;6.90;99.90
52899;DHT22;38763;53.096;6.062;2022-11-18T01:16:08;6.90;99.90
52899;DHT22;38763;53.096;6.062;2022-11-18T01:18:34;6.80;99.90
52899;DHT22;38763;53.096;6.062;2022-11-18T01:21:01;7.20;99.90
52899;DHT22;38763;53.096;6.062;2022-11-18T01:23:27;6.90;99.90
52899;DHT22;38763;53.096;6.062;2022-11-18T01:25:53;7.10;99.90
52899;DHT22;38763;53.096;6.062;2022-11-18T01:28:19;7.10;99.90
52899;DHT22;38763;53.096;6.062;2022-11-18T01:30:45;7.20;99.90
52899;DHT22;38763;53.096;6.062;2022-11-18T01:33:11;7.00;99.90
52899;DHT22;38763;53.096;6.062;2022-11-18T01:35:42;7.20;99.90
52899;DHT22;38763;53.096;6.062;2022-11-18T01:38:10;7.30;99.90
52899;DHT22;38763;53.096;6.062;2022-11-18T01:40:37;7.20;99.90
52899;DHT22;38763;53.096;6.062;2022-11-18T01:43:13;7.10;99.90
52899;DHT22;38763;53.096;6.062;2022-11-18T01:45:41;7.00;99.90
52899;DHT22;38763;53.096;6.062;2022-11-18T01:48:29;7.00;99.90
52899;DHT22;38763;53.096;6.062;2022-11-18T01:51:00;7.10;99.90
52899;DHT22;38763;53.096;6.062;2022-11-18T01:53:35;7.30;99.90
52899;DHT22;38763;53.096;6.062;2022-11-18T01:56:07;7.20;99.90
52899;DHT22;38763;53.096;6.062;2022-11-18T01:58:39;7.10;99.90
52899;DHT22;38763;53.096;6.062;2022-11-18T02:01:06;7.10;99.90
52899;DHT22;38763;53.096;6.062;2022-11-18T02:03:32;7.20;99.90
52899;DHT22;38763;53.096;6.062;2022-11-18T02:05:59;7.20;99.90
52899;DHT22;38763;53.096;6.062;2022-11-18T02:08:27;7.10;99.90
52899;DHT22;38763;53.096;6.062;2022-11-18T02:10:53;7.20;99.90
52899;DHT22;38763;53.096;6.062;2022-11-18T02:13:19;7.10;99.90
52899;DHT22;38763;53.096;6.062;2022-11-18T02:16:10;7.20;99.90
52899;DHT22;38763;53.096;6.062;2022-11-18T02:18:54;7.30;99.90
52899;DHT22;38763;53.096;6.062;2022-11-18T02:21:44;7.20;99.90
52899;DHT22;38763;53.096;6.062;2022-11-18T02:27:29;7.30;99.90
52899;DHT22;38763;53.096;6.062;2022-11-18T02:30:07;7.30;99.90
52899;DHT22;38763;53.096;6.062;2022-11-18T02:32:43;7.10;99.90
52899;DHT22;38763;53.096;6.062;2022-11-18T02:35:27;7.10;99.90
52899;DHT22;38763;53.096;6.062;2022-11-18T02:38:01;7.20;99.90
52899;DHT22;38763;53.096;6.062;2022-11-18T02:40:35;7.40;99.90
52899;DHT22;38763;53.096;6.062;2022-11-18T02:43:07;7.40;99.90
52899;DHT22;38763;53.096;6.062;2022-11-18T02:45:35;7.30;99.90
52899;DHT22;38763;53.096;6.062;2022-11-18T02:48:06;7.50;99.90
52899;DHT22;38763;53.096;6.062;2022-11-18T02:50:34;7.20;99.90
52899;DHT22;38763;53.096;6.062;2022-11-18T02:53:03;7.30;99.90
52899;DHT22;38763;53.096;6.062;2022-11-18T02:55:33;7.30;99.90
52899;DHT22;38763;53.096;6.062;2022-11-18T02:58:00;7.10;99.90
52899;DHT22;38763;53.096;6.062;2022-11-18T03:00:27;7.40;99.90
52899;DHT22;38763;53.096;6.062;2022-11-18T03:02:54;7.30;99.90
52899;DHT22;38763;53.096;6.062;2022-11-18T03:05:39;7.30;99.90
52899;DHT22;38763;53.096;6.062;2022-11-18T03:08:14;7.50;99.90
52899;DHT22;38763;53.096;6.062;2022-11-18T03:10:48;7.40;99.90
52899;DHT22;38763;53.096;6.062;2022-11-18T03:13:23;7.30;99.90
52899;DHT22;38763;53.096;6.062;2022-11-18T03:18:31;7.40;99.90
52899;DHT22;38763;53.096;6.062;2022-11-18T03:21:05;7.30;99.90
52899;DHT22;38763;53.096;6.062;2022-11-18T03:23:43;7.40;99.90
52899;DHT22;38763;53.096;6.062;2022-11-18T03:26:20;7.20;99.90
52899;DHT22;38763;53.096;6.062;2022-11-18T03:31:23;7.20;99.90
52899;DHT22;38763;53.096;6.062;2022-11-18T03:34:06;7.40;99.90
52899;DHT22;38763;53.096;6.062;2022-11-18T03:36:37;7.40;99.90
52899;DHT22;38763;53.096;6.062;2022-11-18T03:39:05;7.10;99.90
52899;DHT22;38763;53.096;6.062;2022-11-18T03:41:37;7.20;99.90
52899;DHT22;38763;53.096;6.062;2022-11-18T03:44:09;7.10;99.90
52899;DHT22;38763;53.096;6.062;2022-11-18T03:46:38;7.40;99.90
52899;DHT22;38763;53.096;6.062;2022-11-18T03:49:05;7.20;99.90
52899;DHT22;38763;53.096;6.062;2022-11-18T03:51:40;7.10;99.90
52899;DHT22;38763;53.096;6.062;2022-11-18T03:54:16;7.00;99.90
52899;DHT22;38763;53.096;6.062;2022-11-18T03:56:55;7.10;99.90
52899;DHT22;38763;53.096;6.062;2022-11-18T03:59:50;7.20;99.90
52899;DHT22;38763;53.096;6.062;2022-11-18T04:02:20;7.10;99.90
52899;DHT22;38763;53.096;6.062;2022-11-18T04:04:48;7.40;99.90
52899;DHT22;38763;53.096;6.062;2022-11-18T04:07:26;7.30;99.90
52899;DHT22;38763;53.096;6.062;2022-11-18T04:10:01;7.10;99.90
52899;DHT22;38763;53.096;6.062;2022-11-18T04:12:32;7.30;99.90
52899;DHT22;38763;53.096;6.062;2022-11-18T04:14:58;7.10;99.90
52899;DHT22;38763;53.096;6.062;2022-11-18T04:17:26;7.30;99.90
52899;DHT22;38763;53.096;6.062;2022-11-18T04:19:53;7.10;99.90
52899;DHT22;38763;53.096;6.062;2022-11-18T04:22:19;7.10;99.90
52899;DHT22;38763;53.096;6.062;2022-11-18T04:24:44;7.00;99.90
52899;DHT22;38763;53.096;6.062;2022-11-18T04:27:10;7.20;99.90
52899;DHT22;38763;53.096;6.062;2022-11-18T04:29:36;7.20;99.90
52899;DHT22;38763;53.096;6.062;2022-11-18T04:32:01;7.00;99.90
52899;DHT22;38763;53.096;6.062;2022-11-18T04:34:27;7.00;99.90
52899;DHT22;38763;53.096;6.062;2022-11-18T04:36:53;7.30;99.90
52899;DHT22;38763;53.096;6.062;2022-11-18T04:39:19;7.30;99.90
52899;DHT22;38763;53.096;6.062;2022-11-18T04:41:45;7.00;99.90
52899;DHT22;38763;53.096;6.062;2022-11-18T04:44:27;7.10;99.90
52899;DHT22;38763;53.096;6.062;2022-11-18T04:46:54;7.00;99.90
52899;DHT22;38763;53.096;6.062;2022-11-18T04:49:21;7.20;99.90
52899;DHT22;38763;53.096;6.062;2022-11-18T04:51:47;7.20;99.90
52899;DHT22;38763;53.096;6.062;2022-11-18T04:54:13;7.10;99.90
52899;DHT22;38763;53.096;6.062;2022-11-18T04:56:40;6.90;99.90
52899;DHT22;38763;53.096;6.062;2022-11-18T04:59:06;6.90;99.90
52899;DHT22;38763;53.096;6.062;2022-11-18T05:01:32;7.00;99.90
52899;DHT22;38763;53.096;6.062;2022-11-18T05:04:02;6.90;99.90
52899;DHT22;38763;53.096;6.062;2022-11-18T05:06:28;7.10;99.90
52899;DHT22;38763;53.096;6.062;2022-11-18T05:08:55;6.90;99.90
52899;DHT22;38763;53.096;6.062;2022-11-18T05:11:21;7.10;99.90
52899;DHT22;38763;53.096;6.062;2022-11-18T05:14:05;7.10;99.90
52899;DHT22;38763;53.096;6.062;2022-11-18T05:16:31;6.90;99.90
52899;DHT22;38763;53.096;6.062;2022-11-18T05:18:56;7.00;99.90
52899;DHT22;38763;53.096;6.062;2022-11-18T05:21:22;7.20;99.90
52899;DHT22;38763;53.096;6.062;2022-11-18T05:23:47;6.90;99.90
52899;DHT22;38763;53.096;6.062;2022-11-18T05:26:13;7.10;99.90
52899;DHT22;38763;53.096;6.062;2022-11-18T05:28:39;6.80;99.90
52899;DHT22;38763;53.096;6.062;2022-11-18T05:31:09;6.90;99.90
52899;DHT22;38763;53.096;6.062;2022-11-18T05:33:35;6.80;99.90
52899;DHT22;38763;53.096;6.062;2022-11-18T05:36:06;6.90;99.90
52899;DHT22;38763;53.096;6.062;2022-11-18T05:38:32;6.90;99.90
52899;DHT22;38763;53.096;6.062;2022-11-18T05:40:58;6.80;99.90
52899;DHT22;38763;53.096;6.062;2022-11-18T05:43:24;6.90;99.90
52899;DHT22;38763;53.096;6.062;2022-11-18T05:45:50;7.00;99.90
52899;DHT22;38763;53.096;6.062;2022-11-18T05:48:17;6.90;99.90
52899;DHT22;38763;53.096;6.062;2022-11-18T05:50:45;6.80;99.90
52899;DHT22;38763;53.096;6.062;2022-11-18T05:53:12;6.80;99.90
52899;DHT22;38763;53.096;6.062;2022-11-18T05:55:57;7.00;99.90
52899;DHT22;38763;53.096;6.062;2022-11-18T05:58:25;7.10;99.90
52899;DHT22;38763;53.096;6.062;2022-11-18T06:00:53;6.80;99.90
52899;DHT22;38763;53.096;6.062;2022-11-18T06:03:25;7.00;99.90
52899;DHT22;38763;53.096;6.062;2022-11-18T06:05:53;6.90;99.90
52899;DHT22;38763;53.096;6.062;2022-11-18T06:08:20;7.10;99.90
52899;DHT22;38763;53.096;6.062;2022-11-18T06:10:48;6.80;99.90
52899;DHT22;38763;53.096;6.062;2022-11-18T06:13:19;6.90;99.90
52899;DHT22;38763;53.096;6.062;2022-11-18T06:15:46;7.00;99.90
52899;DHT22;38763;53.096;6.062;2022-11-18T06:18:22;6.80;99.90
52899;DHT22;38763;53.096;6.062;2022-11-18T06:20:51;6.80;99.90
52899;DHT22;38763;53.096;6.062;2022-11-18T06:23:17;6.90;99.90
52899;DHT22;38763;53.096;6.062;2022-11-18T06:25:43;7.00;99.90
52899;DHT22;38763;53.096;6.062;2022-11-18T06:28:11;6.80;99.90
52899;DHT22;38763;53.096;6.062;2022-11-18T06:30:38;6.70;99.90
52899;DHT22;38763;53.096;6.062;2022-11-18T06:33:03;6.90;99.90
52899;DHT22;38763;53.096;6.062;2022-11-18T06:35:29;6.80;99.90
52899;DHT22;38763;53.096;6.062;2022-11-18T06:37:55;6.80;99.90
52899;DHT22;38763;53.096;6.062;2022-11-18T06:40:20;6.80;99.90
52899;DHT22;38763;53.096;6.062;2022-11-18T06:42:46;6.90;99.90
52899;DHT22;38763;53.096;6.062;2022-11-18T06:45:30;6.90;99.90
52899;DHT22;38763;53.096;6.062;2022-11-18T06:47:57;6.70;99.90
52899;DHT22;38763;53.096;6.062;2022-11-18T06:50:23;6.90;99.90
52899;DHT22;38763;53.096;6.062;2022-11-18T06:52:49;6.90;99.90
52899;DHT22;38763;53.096;6.062;2022-11-18T06:55:15;7.00;99.90
52899;DHT22;38763;53.096;6.062;2022-11-18T06:57:40;6.90;99.90
52899;DHT22;38763;53.096;6.062;2022-11-18T07:00:06;6.60;99.90
52899;DHT22;38763;53.096;6.062;2022-11-18T07:02:35;6.60;99.90
52899;DHT22;38763;53.096;6.062;2022-11-18T07:05:01;6.90;99.90
52899;DHT22;38763;53.096;6.062;2022-11-18T07:07:27;6.70;99.90
52899;DHT22;38763;53.096;6.062;2022-11-18T07:09:52;6.70;99.90
52899;DHT22;38763;53.096;6.062;2022-11-18T07:12:18;6.80;99.90
52899;DHT22;38763;53.096;6.062;2022-11-18T07:14:43;6.80;99.90
52899;DHT22;38763;53.096;6.062;2022-11-18T07:17:09;6.70;99.90
52899;DHT22;38763;53.096;6.062;2022-11-18T07:19:34;6.60;99.90
52899;DHT22;38763;53.096;6.062;2022-11-18T07:22:00;6.60;99.90
52899;DHT22;38763;53.096;6.062;2022-11-18T07:24:25;6.90;99.90
52899;DHT22;38763;53.096;6.062;2022-11-18T07:26:54;6.60;99.90
52899;DHT22;38763;53.096;6.062;2022-11-18T07:29:20;6.60;99.90
52899;DHT22;38763;53.096;6.062;2022-11-18T07:31:45;6.70;99.90
52899;DHT22;38763;53.096;6.062;2022-11-18T07:34:11;6.60;99.90
52899;DHT22;38763;53.096;6.062;2022-11-18T07:36:37;6.80;99.90
52899;DHT22;38763;53.096;6.062;2022-11-18T07:39:04;6.80;99.90
52899;DHT22;38763;53.096;6.062;2022-11-18T07:41:31;6.50;99.90
52899;DHT22;38763;53.096;6.062;2022-11-18T07:43:58;6.70;99.90
52899;DHT22;38763;53.096;6.062;2022-11-18T07:46:29;6.60;99.90
52899;DHT22;38763;53.096;6.062;2022-11-18T07:48:57;6.50;99.90
52899;DHT22;38763;53.096;6.062;2022-11-18T07:51:28;6.50;99.90
52899;DHT22;38763;53.096;6.062;2022-11-18T07:53:54;6.80;99.90
52899;DHT22;38763;53.096;6.062;2022-11-18T07:56:20;6.70;99.90
52899;DHT22;38763;53.096;6.062;2022-11-18T07:58:46;6.50;99.90
52899;DHT22;38763;53.096;6.062;2022-11-18T08:01:15;6.50;99.90
52899;DHT22;38763;53.096;6.062;2022-11-18T08:03:41;6.40;99.90
52899;DHT22;38763;53.096;6.062;2022-11-18T08:06:08;6.40;99.90
52899;DHT22;38763;53.096;6.062;2022-11-18T08:08:35;6.60;99.90
52899;DHT22;38763;53.096;6.062;2022-11-18T08:11:03;6.50;99.90
52899;DHT22;38763;53.096;6.062;2022-11-18T08:13:30;6.70;99.90
52899;DHT22;38763;53.096;6.062;2022-11-18T08:15:56;6.70;99.90
52899;DHT22;38763;53.096;6.062;2022-11-18T08:18:22;6.40;99.90
52899;DHT22;38763;53.096;6.062;2022-11-18T08:20:48;6.50;99.90
52899;DHT22;38763;53.096;6.062;2022-11-18T08:23:14;6.70;99.90
52899;DHT22;38763;53.096;6.062;2022-11-18T08:25:41;6.60;99.90
52899;DHT22;38763;53.096;6.062;2022-11-18T08:28:07;6.40;99.90
52899;DHT22;38763;53.096;6.062;2022-11-18T08:30:34;6.40;99.90
52899;DHT22;38763;53.096;6.062;2022-11-18T08:32:59;6.50;99.90
52899;DHT22;38763;53.096;6.062;2022-11-18T08:35:26;6.70;99.90
52899;DHT22;38763;53.096;6.062;2022-11-18T08:37:52;6.50;99.90
52899;DHT22;38763;53.096;6.062;2022-11-18T08:40:18;6.60;99.90
52899;DHT22;38763;53.096;6.062;2022-11-18T08:42:44;6.50;99.90
52899;DHT22;38763;53.096;6.062;2022-11-18T08:45:09;6.50;99.90
52899;DHT22;38763;53.096;6.062;2022-11-18T08:47:36;6.60;99.90
52899;DHT22;38763;53.096;6.062;2022-11-18T08:50:07;6.70;99.90
52899;DHT22;38763;53.096;6.062;2022-11-18T08:52:33;6.60;99.90
52899;DHT22;38763;53.096;6.062;2022-11-18T08:54:59;6.50;99.90
52899;DHT22;38763;53.096;6.062;2022-11-18T08:57:25;6.40;99.90
52899;DHT22;38763;53.096;6.062;2022-11-18T08:59:51;6.60;99.90
52899;DHT22;38763;53.096;6.062;2022-11-18T09:02:19;6.50;99.90
52899;DHT22;38763;53.096;6.062;2022-11-18T09:04:49;6.50;99.90
52899;DHT22;38763;53.096;6.062;2022-11-18T09:07:19;6.50;99.90
52899;DHT22;38763;53.096;6.062;2022-11-18T09:09:46;6.70;99.90
52899;DHT22;38763;53.096;6.062;2022-11-18T09:12:12;6.50;99.90
52899;DHT22;38763;53.096;6.062;2022-11-18T09:14:45;6.70;99.90
52899;DHT22;38763;53.096;6.062;2022-11-18T09:17:12;6.70;99.90
52899;DHT22;38763;53.096;6.062;2022-11-18T09:19:39;6.50;99.90
52899;DHT22;38763;53.096;6.062;2022-11-18T09:22:05;6.60;99.90
52899;DHT22;38763;53.096;6.062;2022-11-18T09:24:31;6.60;99.90
52899;DHT22;38763;53.096;6.062;2022-11-18T09:26:57;6.50;99.90
52899;DHT22;38763;53.096;6.062;2022-11-18T09:29:23;6.70;99.90
52899;DHT22;38763;53.096;6.062;2022-11-18T09:31:51;6.60;99.90
52899;DHT22;38763;53.096;6.062;2022-11-18T09:34:17;6.50;99.90
52899;DHT22;38763;53.096;6.062;2022-11-18T09:36:43;6.60;99.90
52899;DHT22;38763;53.096;6.062;2022-11-18T09:39:09;6.60;99.90
52899;DHT22;38763;53.096;6.062;2022-11-18T09:41:48;6.70;99.90
52899;DHT22;38763;53.096;6.062;2022-11-18T09:47:27;6.80;99.90
52899;DHT22;38763;53.096;6.062;2022-11-18T09:49:55;6.60;99.90
52899;DHT22;38763;53.096;6.062;2022-11-18T09:54:48;6.50;99.90
52899;DHT22;38763;53.096;6.062;2022-11-18T09:57:16;6.70;99.90
52899;DHT22;38763;53.096;6.062;2022-11-18T09:59:43;6.60;99.90
52899;DHT22;38763;53.096;6.062;2022-11-18T10:04:37;6.60;99.90
52899;DHT22;38763;53.096;6.062;2022-11-18T10:07:09;6.60;99.90
52899;DHT22;38763;53.096;6.062;2022-11-18T10:09:40;6.80;99.90
52899;DHT22;38763;53.096;6.062;2022-11-18T10:15:12;6.60;99.90
52899;DHT22;38763;53.096;6.062;2022-11-18T10:18:18;6.60;99.90
52899;DHT22;38763;53.096;6.062;2022-11-18T10:23:49;6.70;99.90
52899;DHT22;38763;53.096;6.062;2022-11-18T10:26:34;6.80;99.90
52899;DHT22;38763;53.096;6.062;2022-11-18T10:29:00;6.50;99.90
52899;DHT22;38763;53.096;6.062;2022-11-18T10:31:25;6.50;99.90
52899;DHT22;38763;53.096;6.062;2022-11-18T10:33:58;6.50;99.90
52899;DHT22;38763;53.096;6.062;2022-11-18T10:36:27;6.70;99.90
52899;DHT22;38763;53.096;6.062;2022-11-18T10:41:51;6.50;99.90
52899;DHT22;38763;53.096;6.062;2022-11-18T10:44:28;6.60;99.90
52899;DHT22;38763;53.096;6.062;2022-11-18T10:46:55;6.70;99.90
52899;DHT22;38763;53.096;6.062;2022-11-18T10:49:20;6.70;99.90
52899;DHT22;38763;53.096;6.062;2022-11-18T10:52:13;6.80;99.90
52899;DHT22;38763;53.096;6.062;2022-11-18T10:54:40;6.70;99.90
52899;DHT22;38763;53.096;6.062;2022-11-18T10:57:21;6.80;99.90
52899;DHT22;38763;53.096;6.062;2022-11-18T10:59:53;6.80;99.90
52899;DHT22;38763;53.096;6.062;2022-11-18T11:05:03;6.70;99.90
52899;DHT22;38763;53.096;6.062;2022-11-18T11:07:31;6.60;99.90
52899;DHT22;38763;53.096;6.062;2022-11-18T11:12:40;6.50;99.90
52899;DHT22;38763;53.096;6.062;2022-11-18T11:15:30;6.50;99.90
52899;DHT22;38763;53.096;6.062;2022-11-18T11:17:59;6.70;99.90
52899;DHT22;38763;53.096;6.062;2022-11-18T11:20:44;6.70;99.90
52899;DHT22;38763;53.096;6.062;2022-11-18T11:23:12;6.70;99.90
52899;DHT22;38763;53.096;6.062;2022-11-18T11:26:15;6.70;99.90
52899;DHT22;38763;53.096;6.062;2022-11-18T11:28:57;6.50;99.90
52899;DHT22;38763;53.096;6.062;2022-11-18T11:31:38;6.70;99.90
52899;DHT22;38763;53.096;6.062;2022-11-18T11:34:27;6.70;99.90
52899;DHT22;38763;53.096;6.062;2022-11-18T11:48:28;6.50;99.90
52899;DHT22;38763;53.096;6.062;2022-11-18T11:51:15;6.50;99.90
52899;DHT22;38763;53.096;6.062;2022-11-18T11:56:23;6.50;99.90
52899;DHT22;38763;53.096;6.062;2022-11-18T11:59:12;6.70;99.90
52899;DHT22;38763;53.096;6.062;2022-11-18T12:02:27;6.60;99.90
52899;DHT22;38763;53.096;6.062;2022-11-18T12:04:52;6.40;99.90
52899;DHT22;38763;53.096;6.062;2022-11-18T12:07:28;6.50;99.90
52899;DHT22;38763;53.096;6.062;2022-11-18T12:14:03;6.60;99.90
52899;DHT22;38763;53.096;6.062;2022-11-18T12:24:40;6.40;99.90
52899;DHT22;38763;53.096;6.062;2022-11-18T12:30:02;6.50;99.90
52899;DHT22;38763;53.096;6.062;2022-11-18T12:32:38;6.30;99.90
52899;DHT22;38763;53.096;6.062;2022-11-18T12:40:29;6.20;99.90
52899;DHT22;38763;53.096;6.062;2022-11-18T12:42:55;6.50;99.90
52899;DHT22;38763;53.096;6.062;2022-11-18T12:48:30;6.40;99.90
52899;DHT22;38763;53.096;6.062;2022-11-18T12:53:52;6.40;99.90
52899;DHT22;38763;53.096;6.062;2022-11-18T12:58:45;6.30;99.90
52899;DHT22;38763;53.096;6.062;2022-11-18T13:01:14;6.20;99.90
52899;DHT22;38763;53.096;6.062;2022-11-18T13:03:40;6.10;99.90
52899;DHT22;38763;53.096;6.062;2022-11-18T13:06:25;6.10;99.90
52899;DHT22;38763;53.096;6.062;2022-11-18T13:08:59;6.10;99.90
52899;DHT22;38763;53.096;6.062;2022-11-18T13:11:27;6.00;99.90
52899;DHT22;38763;53.096;6.062;2022-11-18T13:14:44;5.90;99.90
52899;DHT22;38763;53.096;6.062;2022-11-18T13:17:36;6.00;99.90
52899;DHT22;38763;53.096;6.062;2022-11-18T13:25:49;5.90;99.90
52899;DHT22;38763;53.096;6.062;2022-11-18T13:31:04;5.80;99.90
52899;DHT22;38763;53.096;6.062;2022-11-18T13:33:34;5.80;99.90
52899;DHT22;38763;53.096;6.062;2022-11-18T13:36:00;5.90;99.90
52899;DHT22;38763;53.096;6.062;2022-11-18T13:38:26;5.70;99.90
52899;DHT22;38763;53.096;6.062;2022-11-18T13:40:52;5.80;99.90
52899;DHT22;38763;53.096;6.062;2022-11-18T13:43:33;5.90;99.90
52899;DHT22;38763;53.096;6.062;2022-11-18T13:46:02;5.80;99.90
52899;DHT22;38763;53.096;6.062;2022-11-18T13:48:29;5.80;99.90
52899;DHT22;38763;53.096;6.062;2022-11-18T13:50:57;5.90;99.90
52899;DHT22;38763;53.096;6.062;2022-11-18T14:01:02;5.90;99.90
52899;DHT22;38763;53.096;6.062;2022-11-18T14:03:34;5.80;99.90
52899;DHT22;38763;53.096;6.062;2022-11-18T14:06:01;5.70;99.90
52899;DHT22;38763;53.096;6.062;2022-11-18T14:08:29;5.80;99.90
52899;DHT22;38763;53.096;6.062;2022-11-18T14:10:56;5.70;99.90
52899;DHT22;38763;53.096;6.062;2022-11-18T14:13:36;5.60;99.90
52899;DHT22;38763;53.096;6.062;2022-11-18T14:18:45;5.50;99.90
52899;DHT22;38763;53.096;6.062;2022-11-18T14:21:11;5.60;99.90
52899;DHT22;38763;53.096;6.062;2022-11-18T14:23:41;5.50;99.90
52899;DHT22;38763;53.096;6.062;2022-11-18T14:26:08;5.50;99.90
52899;DHT22;38763;53.096;6.062;2022-11-18T14:28:37;5.40;99.90
52899;DHT22;38763;53.096;6.062;2022-11-18T14:31:20;5.50;99.90
52899;DHT22;38763;53.096;6.062;2022-11-18T14:36:47;5.50;99.90
52899;DHT22;38763;53.096;6.062;2022-11-18T14:39:30;5.40;99.90
52899;DHT22;38763;53.096;6.062;2022-11-18T14:41:56;5.40;99.90
52899;DHT22;38763;53.096;6.062;2022-11-18T14:44:24;5.30;99.90
52899;DHT22;38763;53.096;6.062;2022-11-18T14:47:02;5.30;99.90
52899;DHT22;38763;53.096;6.062;2022-11-18T14:49:29;5.20;99.90
52899;DHT22;38763;53.096;6.062;2022-11-18T14:51:56;5.20;99.90
52899;DHT22;38763;53.096;6.062;2022-11-18T14:54:24;5.30;99.90
52899;DHT22;38763;53.096;6.062;2022-11-18T14:56:50;5.10;99.90
52899;DHT22;38763;53.096;6.062;2022-11-18T14:59:18;5.20;99.90
52899;DHT22;38763;53.096;6.062;2022-11-18T15:01:45;5.10;99.90
52899;DHT22;38763;53.096;6.062;2022-11-18T15:04:12;5.10;99.90
52899;DHT22;38763;53.096;6.062;2022-11-18T15:06:38;5.00;99.90
52899;DHT22;38763;53.096;6.062;2022-11-18T15:09:05;5.00;99.90
52899;DHT22;38763;53.096;6.062;2022-11-18T15:11:32;5.10;99.90
52899;DHT22;38763;53.096;6.062;2022-11-18T15:13:58;4.90;99.90
52899;DHT22;38763;53.096;6.062;2022-11-18T15:16:28;5.00;99.90
52899;DHT22;38763;53.096;6.062;2022-11-18T15:18:56;5.00;99.90
52899;DHT22;38763;53.096;6.062;2022-11-18T15:21:23;4.90;99.90
52899;DHT22;38763;53.096;6.062;2022-11-18T15:23:49;4.80;99.90
52899;DHT22;38763;53.096;6.062;2022-11-18T15:28:49;4.80;99.90
52899;DHT22;38763;53.096;6.062;2022-11-18T15:31:15;4.80;99.90
52899;DHT22;38763;53.096;6.062;2022-11-18T15:33:42;4.70;99.90
52899;DHT22;38763;53.096;6.062;2022-11-18T15:36:15;4.80;99.90
52899;DHT22;38763;53.096;6.062;2022-11-18T15:38:41;4.70;99.90
52899;DHT22;38763;53.096;6.062;2022-11-18T15:41:24;4.80;99.90
52899;DHT22;38763;53.096;6.062;2022-11-18T15:43:51;4.70;99.90
52899;DHT22;38763;53.096;6.062;2022-11-18T15:46:19;4.60;99.90
52899;DHT22;38763;53.096;6.062;2022-11-18T15:48:45;4.50;99.90
52899;DHT22;38763;53.096;6.062;2022-11-18T15:51:11;4.50;99.90
52899;DHT22;38763;53.096;6.062;2022-11-18T15:53:37;4.60;99.90
52899;DHT22;38763;53.096;6.062;2022-11-18T15:58:44;4.50;99.90
52899;DHT22;38763;53.096;6.062;2022-11-18T16:01:10;4.40;99.90
52899;DHT22;38763;53.096;6.062;2022-11-18T16:03:36;4.40;99.90
52899;DHT22;38763;53.096;6.062;2022-11-18T16:06:02;4.30;99.90
52899;DHT22;38763;53.096;6.062;2022-11-18T16:08:28;4.40;99.90
52899;DHT22;38763;53.096;6.062;2022-11-18T16:10:55;4.30;99.90
52899;DHT22;38763;53.096;6.062;2022-11-18T16:13:40;4.30;99.90
52899;DHT22;38763;53.096;6.062;2022-11-18T16:16:05;4.20;99.90
52899;DHT22;38763;53.096;6.062;2022-11-18T16:18:31;4.30;99.90
52899;DHT22;38763;53.096;6.062;2022-11-18T16:20:57;4.20;99.90
52899;DHT22;38763;53.096;6.062;2022-11-18T16:23:23;4.30;99.90
52899;DHT22;38763;53.096;6.062;2022-11-18T16:25:49;4.20;99.90
52899;DHT22;38763;53.096;6.062;2022-11-18T16:28:15;4.20;99.90
52899;DHT22;38763;53.096;6.062;2022-11-18T16:30:46;4.20;99.90
52899;DHT22;38763;53.096;6.062;2022-11-18T16:33:30;4.10;99.90
52899;DHT22;38763;53.096;6.062;2022-11-18T16:35:56;4.10;99.90
52899;DHT22;38763;53.096;6.062;2022-11-18T16:38:21;4.20;99.90
52899;DHT22;38763;53.096;6.062;2022-11-18T16:40:54;4.10;99.90
52899;DHT22;38763;53.096;6.062;2022-11-18T16:43:20;4.10;99.90
52899;DHT22;38763;53.096;6.062;2022-11-18T16:45:53;4.10;99.90
52899;DHT22;38763;53.096;6.062;2022-11-18T16:48:22;4.10;99.90
52899;DHT22;38763;53.096;6.062;2022-11-18T16:51:05;4.10;99.90
52899;DHT22;38763;53.096;6.062;2022-11-18T16:53:38;4.10;99.90
52899;DHT22;38763;53.096;6.062;2022-11-18T16:56:04;4.20;99.90
52899;DHT22;38763;53.096;6.062;2022-11-18T16:58:30;4.10;99.90
52899;DHT22;38763;53.096;6.062;2022-11-18T17:00:55;4.10;99.90
52899;DHT22;38763;53.096;6.062;2022-11-18T17:03:21;4.00;99.90
52899;DHT22;38763;53.096;6.062;2022-11-18T17:05:47;4.00;99.90
52899;DHT22;38763;53.096;6.062;2022-11-18T17:08:13;3.90;99.90
52899;DHT22;38763;53.096;6.062;2022-11-18T17:10:38;4.00;99.90
52899;DHT22;38763;53.096;6.062;2022-11-18T17:13:04;3.90;99.90
52899;DHT22;38763;53.096;6.062;2022-11-18T17:15:29;3.90;99.90
52899;DHT22;38763;53.096;6.062;2022-11-18T17:17:55;3.90;99.90
52899;DHT22;38763;53.096;6.062;2022-11-18T17:20:20;3.80;99.90
52899;DHT22;38763;53.096;6.062;2022-11-18T17:22:46;3.90;99.90
52899;DHT22;38763;53.096;6.062;2022-11-18T17:25:12;3.90;99.90
52899;DHT22;38763;53.096;6.062;2022-11-18T17:27:37;3.80;99.90
52899;DHT22;38763;53.096;6.062;2022-11-18T17:30:03;3.80;99.90
52899;DHT22;38763;53.096;6.062;2022-11-18T17:32:29;3.80;99.90
52899;DHT22;38763;53.096;6.062;2022-11-18T17:34:54;3.80;99.90
52899;DHT22;38763;53.096;6.062;2022-11-18T17:37:20;3.80;99.90
52899;DHT22;38763;53.096;6.062;2022-11-18T17:39:45;3.70;99.90
52899;DHT22;38763;53.096;6.062;2022-11-18T17:42:12;3.60;99.90